Time;durP1;ratioP1;P1;durP2;ratioP2;P2;SDS_P1;SDS_P2;PMS_P1;PMS_P2;Temp;Humidity;BMP_temperature;BMP_pressure;BME280_temperature;BME280_humidity;BME280_pressure;Samples;Min_cycle;Max_cycle;Signal;HPM_P1;HPM_P2
2022/02/03 00:00:08;;;;;;;9.43;5.30;;;7.10;99.90;;;;;;5094694;28;20110;-80
2022/02/03 00:02:39;;;;;;;8.63;4.95;;;7.10;99.90;;;;;;5115620;27;20430;-83
2022/02/03 00:05:12;;;;;;;7.40;5.35;;;7.20;99.90;;;;;;5143932;27;20031;-81
2022/02/03 00:26:29;;;;;;;17.70;7.60;;;7.50;99.90;;;;;;5115608;28;20553;-80
2022/02/03 00:28:56;;;;;;;15.00;6.72;;;7.50;99.90;;;;;;5112195;28;20497;-81
2022/02/03 00:31:41;;;;;;;15.65;6.82;;;7.50;99.90;;;;;;5121920;28;20042;-81
2022/02/03 00:34:17;;;;;;;11.98;7.60;;;7.60;99.90;;;;;;5095553;28;20078;-80
2022/02/03 00:50:28;;;;;;;12.50;6.32;;;7.70;99.90;;;;;;5118911;28;20101;-78
2022/02/03 00:52:54;;;;;;;16.60;6.65;;;7.60;99.90;;;;;;5099659;28;20042;-80
2022/02/03 00:55:19;;;;;;;17.08;6.43;;;7.70;99.90;;;;;;5112862;28;20035;-81
2022/02/03 00:57:50;;;;;;;12.25;6.30;;;7.70;99.90;;;;;;5126770;28;20054;-78
2022/02/03 01:00:17;;;;;;;11.68;5.00;;;7.70;99.90;;;;;;5129888;27;20039;-81
2022/02/03 01:03:07;;;;;;;14.07;6.78;;;7.70;99.90;;;;;;5115769;27;20087;-81
2022/02/03 01:05:36;;;;;;;13.82;5.43;;;7.70;99.90;;;;;;5099041;27;20027;-80
2022/02/03 01:08:14;;;;;;;10.82;5.88;;;7.70;99.90;;;;;;5127256;27;20071;-79
2022/02/03 01:10:50;;;;;;;11.88;6.18;;;7.80;99.90;;;;;;5115421;27;20408;-78
2022/02/03 01:13:38;;;;;;;14.23;5.22;;;7.80;99.90;;;;;;5116780;27;20532;-81
2022/02/03 01:16:16;;;;;;;8.77;4.45;;;7.80;99.90;;;;;;5113757;28;20388;-81
2022/02/03 01:19:19;;;;;;;11.13;5.65;;;7.80;99.90;;;;;;5116127;27;20034;-78
2022/02/03 01:43:58;;;;;;;9.80;6.03;;;7.90;99.90;;;;;;5091311;28;20074;-81
2022/02/03 01:46:39;;;;;;;15.48;6.93;;;7.90;99.90;;;;;;5094663;28;20042;-78
2022/02/03 01:49:15;;;;;;;12.13;6.00;;;7.90;99.90;;;;;;5093488;28;20106;-79
2022/02/03 01:51:56;;;;;;;13.52;6.05;;;7.90;99.90;;;;;;5094957;28;20472;-78
2022/02/03 01:54:28;;;;;;;8.65;4.72;;;7.90;99.90;;;;;;5113837;28;20503;-79
2022/02/03 01:57:17;;;;;;;7.85;4.78;;;7.90;99.90;;;;;;5096622;28;20101;-79
2022/02/03 01:59:48;;;;;;;8.75;4.90;;;8.00;99.90;;;;;;5127130;27;20044;-82
2022/02/03 02:02:15;;;;;;;9.57;4.88;;;7.90;99.90;;;;;;5123105;27;20039;-80
2022/02/03 02:05:09;;;;;;;9.27;5.88;;;8.00;99.90;;;;;;5097089;28;20036;-79
2022/02/03 02:07:52;;;;;;;11.73;5.68;;;8.00;99.90;;;;;;5115357;27;20050;-80
2022/02/03 02:14:00;;;;;;;7.53;4.57;;;8.00;99.90;;;;;;5147717;27;20176;-79
2022/02/03 02:38:58;;;;;;;20.92;11.13;;;8.10;99.90;;;;;;5110314;27;20055;-79
2022/02/03 02:44:22;;;;;;;21.92;9.68;;;8.10;99.90;;;;;;5123968;27;20051;-80
2022/02/03 02:46:52;;;;;;;;;;;8.10;99.90;;;;;;5113526;27;20065;-80
2022/02/03 02:49:38;;;;;;;23.23;8.82;;;8.10;99.90;;;;;;5113103;27;20379;-79
2022/02/03 02:52:11;;;;;;;12.35;7.53;;;8.10;99.90;;;;;;5124571;27;20035;-77
2022/02/03 03:29:08;;;;;;;22.60;10.15;;;8.10;99.90;;;;;;5115305;27;20047;-80
2022/02/03 03:36:38;;;;;;;15.85;8.35;;;8.00;99.90;;;;;;5113410;27;20078;-78
2022/02/03 03:39:06;;;;;;;17.00;7.90;;;8.10;99.90;;;;;;5119635;27;20473;-78
2022/02/03 03:41:34;;;;;;;14.63;8.38;;;8.10;99.90;;;;;;5113029;28;20504;-77
2022/02/03 03:44:03;;;;;;;13.40;6.03;;;8.20;99.90;;;;;;5105415;28;20036;-78
2022/02/03 03:46:38;;;;;;;17.35;8.52;;;8.00;99.90;;;;;;5113320;27;20529;-79
2022/02/03 03:49:30;;;;;;;18.10;9.13;;;8.00;99.90;;;;;;5099207;28;20040;-77
2022/02/03 03:52:17;;;;;;;18.50;8.52;;;8.00;99.90;;;;;;5111542;27;20092;-79
2022/02/03 03:55:02;;;;;;;12.23;6.20;;;8.00;99.90;;;;;;5126415;27;20176;-78
2022/02/03 03:57:46;;;;;;;11.82;7.50;;;8.00;99.90;;;;;;5113533;27;20368;-77
2022/02/03 04:38:35;;;;;;;15.48;7.28;;;7.80;99.90;;;;;;5121254;27;20044;-79
2022/02/03 04:45:14;;;;;;;18.00;9.20;;;7.80;99.90;;;;;;5124862;27;20127;-79
2022/02/03 04:51:32;;;;;;;13.77;7.60;;;7.80;99.90;;;;;;5127532;27;20043;-78
2022/02/03 05:18:32;;;;;;;9.20;6.03;;;7.80;99.90;;;;;;5120105;27;20055;-80
2022/02/03 05:45:09;;;;;;;21.92;10.80;;;7.90;99.90;;;;;;5119567;27;20536;-77
2022/02/03 06:22:10;;;;;;;23.00;12.55;;;8.00;99.90;;;;;;5120574;27;20055;-79
2022/02/03 06:24:51;;;;;;;18.10;10.27;;;7.90;99.90;;;;;;5121302;27;20484;-80
2022/02/03 06:29:55;;;;;;;22.15;12.25;;;7.90;99.90;;;;;;5118092;27;20551;-80
2022/02/03 06:32:21;;;;;;;20.35;10.85;;;7.90;99.90;;;;;;5121142;27;20043;-80
2022/02/03 06:34:47;;;;;;;22.65;11.68;;;7.90;99.90;;;;;;5122882;27;20122;-78
2022/02/03 06:37:13;;;;;;;22.73;9.20;;;7.90;99.90;;;;;;5125535;27;20161;-78
2022/02/03 06:39:39;;;;;;;14.80;9.65;;;7.90;99.90;;;;;;5125953;27;20039;-78
2022/02/03 06:42:07;;;;;;;23.83;11.80;;;7.90;99.90;;;;;;5114397;27;20047;-79
2022/02/03 06:47:12;;;;;;;21.52;12.00;;;7.90;99.90;;;;;;5125504;27;20126;-77
2022/02/03 06:50:28;;;;;;;23.35;11.82;;;7.80;99.90;;;;;;5117527;27;20043;-80
2022/02/03 06:52:42;;;;;;;29.05;10.82;;;7.90;99.90;;;;;;5112794;27;20051;-78
2022/02/03 06:57:41;;;;;;;29.90;12.50;;;7.90;99.90;;;;;;5124719;27;20039;-78
2022/02/03 07:00:16;;;;;;;20.40;11.43;;;7.90;99.90;;;;;;5113865;27;20480;-79
2022/02/03 07:02:44;;;;;;;17.80;11.45;;;7.80;99.90;;;;;;5116100;27;20465;-76
2022/02/03 07:05:10;;;;;;;24.05;11.13;;;7.80;99.90;;;;;;5082328;27;20047;-79
2022/02/03 07:07:40;;;;;;;22.95;10.70;;;7.80;99.90;;;;;;5100873;27;20043;-76
2022/02/03 07:10:08;;;;;;;16.35;9.52;;;7.80;99.90;;;;;;5119415;27;20043;-77
2022/02/03 07:12:33;;;;;;;21.10;10.18;;;7.80;99.90;;;;;;5119299;27;20098;-78
2022/02/03 07:15:04;;;;;;;40.10;16.58;;;7.80;99.90;;;;;;5115153;27;20516;-79
2022/02/03 07:17:31;;;;;;;24.40;11.75;;;7.90;99.90;;;;;;5110562;27;20438;-78
2022/02/03 07:20:01;;;;;;;25.98;11.48;;;7.90;99.90;;;;;;5121868;27;20111;-77
2022/02/03 07:22:27;;;;;;;31.23;13.57;;;7.80;99.90;;;;;;5107922;27;20043;-77
2022/02/03 07:24:53;;;;;;;34.72;9.43;;;7.80;99.90;;;;;;5104932;27;20088;-76
2022/02/03 07:27:20;;;;;;;23.75;12.00;;;7.80;99.90;;;;;;5126329;27;20036;-77
2022/02/03 07:29:46;;;;;;;18.67;9.80;;;7.80;99.90;;;;;;5126463;27;20383;-76
2022/02/03 07:32:12;;;;;;;28.30;11.55;;;7.80;99.90;;;;;;5120937;27;20100;-77
2022/02/03 07:34:39;;;;;;;13.90;8.27;;;7.90;99.90;;;;;;5109665;27;20414;-78
2022/02/03 07:37:05;;;;;;;13.88;8.32;;;7.90;99.90;;;;;;5104192;27;20058;-78
2022/02/03 07:39:31;;;;;;;16.70;7.80;;;7.80;99.90;;;;;;5122359;27;20106;-78
2022/02/03 07:41:57;;;;;;;18.33;9.40;;;7.80;99.90;;;;;;5124123;27;20044;-77
2022/02/03 07:44:23;;;;;;;11.77;7.38;;;7.80;99.90;;;;;;5114447;27;20032;-78
2022/02/03 07:46:48;;;;;;;20.92;8.43;;;7.80;99.90;;;;;;5115247;27;20071;-77
2022/02/03 07:49:14;;;;;;;16.73;7.97;;;7.80;99.90;;;;;;5118280;27;20441;-77
2022/02/03 07:51:41;;;;;;;21.42;8.82;;;7.80;99.90;;;;;;5118506;27;20075;-79
2022/02/03 07:54:09;;;;;;;21.92;10.18;;;7.80;99.90;;;;;;5122117;27;20070;-77
2022/02/03 07:56:35;;;;;;;21.58;8.60;;;7.80;99.90;;;;;;5125008;27;20043;-77
2022/02/03 07:59:01;;;;;;;16.50;7.35;;;7.80;99.90;;;;;;5126098;27;20095;-78
2022/02/03 08:01:27;;;;;;;20.45;8.40;;;7.70;99.90;;;;;;5111378;27;20034;-76
2022/02/03 08:03:53;;;;;;;21.40;8.85;;;7.70;99.90;;;;;;5120357;27;20046;-77
2022/02/03 08:06:24;;;;;;;16.35;6.95;;;7.70;99.90;;;;;;5119413;27;20148;-79
2022/02/03 08:09:04;;;;;;;18.27;8.10;;;7.70;99.90;;;;;;5105776;27;20047;-78
2022/02/03 08:11:35;;;;;;;10.13;6.22;;;7.70;99.90;;;;;;5120782;27;20042;-78
2022/02/03 08:14:15;;;;;;;19.45;9.57;;;7.70;99.90;;;;;;5125380;27;20166;-79
2022/02/03 08:16:50;;;;;;;12.88;8.10;;;7.70;99.90;;;;;;5045601;28;20396;-79
2022/02/03 08:21:52;;;;;;;15.80;8.25;;;7.70;99.90;;;;;;5101163;28;20310;-79
2022/02/03 08:24:28;;;;;;;17.95;8.40;;;7.80;99.90;;;;;;5096199;28;20039;-79
2022/02/03 08:32:17;;;;;;;19.05;9.88;;;7.80;99.90;;;;;;5104274;28;20048;-78
2022/02/03 08:37:15;;;;;;;16.35;8.77;;;7.70;99.90;;;;;;5095903;28;20080;-77
2022/02/03 08:39:52;;;;;;;18.55;9.98;;;7.90;99.90;;;;;;5096819;28;20389;-78
2022/02/03 08:42:18;;;;;;;19.02;9.27;;;7.80;99.90;;;;;;5095988;28;20087;-79
2022/02/03 08:44:45;;;;;;;14.77;8.85;;;7.80;99.90;;;;;;5095636;28;20071;-79
2022/02/03 08:47:12;;;;;;;22.52;9.40;;;7.80;99.90;;;;;;5096944;28;20537;-77
2022/02/03 08:49:42;;;;;;;21.33;9.38;;;7.80;99.90;;;;;;5100265;28;20409;-78
2022/02/03 08:52:16;;;;;;;14.45;8.40;;;7.80;99.90;;;;;;5099906;28;20044;-78
2022/02/03 08:54:49;;;;;;;20.73;12.45;;;7.80;99.90;;;;;;5094317;28;20460;-78
2022/02/03 08:57:23;;;;;;;16.50;9.10;;;7.80;99.90;;;;;;5096703;28;20040;-77
2022/02/03 09:00:15;;;;;;;13.82;8.18;;;7.80;99.90;;;;;;5084446;28;20040;-79
2022/02/03 09:52:44;;;;;;;10.50;6.35;;;7.90;99.90;;;;;;5104310;28;20047;-84
2022/02/03 09:58:00;;;;;;;13.20;5.45;;;7.90;99.90;;;;;;5102348;28;20139;-82
2022/02/03 10:03:22;;;;;;;15.27;6.55;;;7.90;99.90;;;;;;5105937;28;20694;-84
2022/02/03 10:06:19;;;;;;;7.28;4.95;;;7.40;99.90;;;;;;5106623;28;20522;-83
2022/02/03 10:08:53;;;;;;;9.43;6.13;;;8.00;99.90;;;;;;5101364;28;20052;-81
2022/02/03 10:11:24;;;;;;;8.65;5.07;;;8.00;99.90;;;;;;5119384;28;20036;-82
2022/02/03 10:13:51;;;;;;;11.30;5.38;;;7.90;99.90;;;;;;5093033;28;20050;-85
2022/02/03 10:16:23;;;;;;;11.98;4.93;;;7.20;99.90;;;;;;5115842;28;20102;-82
2022/02/03 10:19:13;;;;;;;10.10;5.65;;;8.00;99.90;;;;;;5091862;28;20049;-83
2022/02/03 10:21:40;;;;;;;8.43;5.10;;;8.00;99.90;;;;;;5097154;28;20088;-78
2022/02/03 10:24:10;;;;;;;12.43;5.78;;;8.00;99.90;;;;;;5105906;28;20485;-82
2022/02/03 10:26:44;;;;;;;11.48;4.55;;;8.00;99.90;;;;;;5084757;28;20152;-84
2022/02/03 10:29:15;;;;;;;12.27;6.80;;;8.10;99.90;;;;;;5087773;28;20116;-82
2022/02/03 10:31:43;;;;;;;8.80;4.60;;;8.10;99.90;;;;;;5095637;28;20040;-82
2022/02/03 10:34:14;;;;;;;11.18;6.72;;;8.00;99.90;;;;;;5090420;28;20044;-80
2022/02/03 10:56:21;;;;;;;7.45;4.72;;;8.10;99.90;;;;;;5095235;28;20388;-84
2022/02/03 10:59:08;;;;;;;8.90;5.82;;;8.10;99.90;;;;;;5088359;28;20122;-79
2022/02/03 11:06:57;;;;;;;8.93;4.45;;;8.00;99.90;;;;;;5096419;28;20084;-83
2022/02/03 11:09:37;;;;;;;9.30;5.22;;;8.30;99.90;;;;;;5100591;28;20036;-82
2022/02/03 11:12:09;;;;;;;6.93;5.45;;;7.90;99.90;;;;;;5103705;28;20043;-78
2022/02/03 11:14:37;;;;;;;7.82;6.60;;;7.80;99.90;;;;;;5128972;28;20019;-81
2022/02/03 11:17:04;;;;;;;11.10;6.85;;;7.80;99.90;;;;;;5095556;28;20052;-80
2022/02/03 11:19:33;;;;;;;10.15;5.72;;;7.70;99.90;;;;;;5095116;28;20057;-79
2022/02/03 11:22:06;;;;;;;10.82;6.22;;;7.60;99.90;;;;;;5081305;28;20051;-80
2022/02/03 11:24:36;;;;;;;12.60;5.63;;;7.50;99.90;;;;;;5062430;28;20131;-82
2022/02/03 11:31:00;;;;;;;8.43;4.95;;;7.30;99.90;;;;;;5087221;28;20101;-83
2022/02/03 12:04:26;;;;;;;12.90;8.25;;;7.60;99.90;;;;;;5118065;28;20063;-81
2022/02/03 12:18:29;;;;;;;14.32;6.10;;;7.70;99.90;;;;;;5070658;28;20473;-80
2022/02/03 12:21:08;;;;;;;7.63;5.07;;;7.80;99.90;;;;;;5102198;28;20089;-84
2022/02/03 12:24:08;;;;;;;8.70;5.05;;;7.80;99.90;;;;;;5109198;28;20123;-86
2022/02/03 12:26:44;;;;;;;9.40;6.15;;;7.90;99.90;;;;;;5095633;28;20039;-82
2022/02/03 12:29:22;;;;;;;;;;;7.90;99.90;;;;;;5094669;28;20055;-83
2022/02/03 12:40:19;;;;;;;5.40;4.07;;;7.90;99.90;;;;;;5095241;28;20469;-85
2022/02/03 12:42:53;;;;;;;9.02;6.28;;;7.90;99.90;;;;;;5101902;28;20051;-84
2022/02/03 12:45:26;;;;;;;9.05;4.03;;;7.90;99.90;;;;;;5086340;28;20098;-85
2022/02/03 12:47:58;;;;;;;7.05;4.78;;;7.80;99.90;;;;;;5103209;28;20087;-83
2022/02/03 12:50:29;;;;;;;6.13;3.50;;;7.90;99.90;;;;;;5105119;28;20042;-83
2022/02/03 12:52:58;;;;;;;5.50;4.22;;;7.90;99.90;;;;;;5098501;28;20056;-83
2022/02/03 12:55:26;;;;;;;8.95;4.85;;;7.90;99.90;;;;;;5101975;28;20082;-83
2022/02/03 12:57:53;;;;;;;5.18;4.25;;;7.90;99.90;;;;;;5109115;28;20399;-84
2022/02/03 13:00:30;;;;;;;;;;;7.90;99.90;;;;;;5105356;28;20046;-81
2022/02/03 13:02:59;;;;;;;4.80;3.55;;;7.90;99.90;;;;;;5091099;28;19924;-82
2022/02/03 13:05:27;;;;;;;8.52;5.25;;;7.90;99.90;;;;;;5096863;28;20043;-80
2022/02/03 13:07:56;;;;;;;12.38;5.20;;;8.00;99.90;;;;;;5097888;28;20123;-80
2022/02/03 13:10:24;;;;;;;5.95;4.13;;;8.00;99.90;;;;;;5088502;28;20072;-83
2022/02/03 13:13:05;;;;;;;7.38;4.88;;;8.00;99.90;;;;;;5112198;28;20036;-77
2022/02/03 13:15:35;;;;;;;8.40;5.03;;;8.00;99.90;;;;;;5109506;28;20101;-78
2022/02/03 13:18:06;;;;;;;8.95;4.22;;;8.00;99.90;;;;;;5099945;28;20165;-82
2022/02/03 13:21:17;;;;;;;7.68;4.25;;;7.90;99.90;;;;;;5102903;28;20051;-82
2022/02/03 13:23:27;;;;;;;7.30;4.28;;;8.00;99.90;;;;;;5103942;28;20082;-81
2022/02/03 13:26:03;;;;;;;8.18;4.78;;;8.00;99.90;;;;;;5107679;28;20040;-83
2022/02/03 13:28:41;;;;;;;8.52;4.82;;;8.00;99.90;;;;;;5103689;28;20135;-81
2022/02/03 13:33:50;;;;;;;6.15;4.00;;;8.00;99.90;;;;;;5107384;28;20051;-85
2022/02/03 13:36:24;;;;;;;6.95;4.07;;;8.00;99.90;;;;;;5099850;28;20050;-86
2022/02/03 13:41:34;;;;;;;8.85;4.05;;;8.00;99.90;;;;;;5094958;28;20058;-82
2022/02/03 13:44:05;;;;;;;5.63;4.00;;;7.90;99.90;;;;;;5093497;28;20036;-84
2022/02/03 13:46:37;;;;;;;6.05;3.58;;;7.90;99.90;;;;;;5097337;28;20036;-80
2022/02/03 13:49:04;;;;;;;7.95;2.75;;;7.80;99.90;;;;;;5108646;28;20075;-83
2022/02/03 13:51:37;;;;;;;6.60;4.07;;;7.80;99.90;;;;;;5111227;28;20180;-83
2022/02/03 13:54:28;;;;;;;6.22;4.60;;;7.80;99.90;;;;;;5110238;28;20039;-83
2022/02/03 14:22:14;;;;;;;4.93;3.15;;;8.10;99.90;;;;;;5078206;28;20052;-84
2022/02/03 14:27:28;;;;;;;5.50;2.50;;;8.10;99.90;;;;;;5082074;28;20048;-85
2022/02/03 14:30:01;;;;;;;5.13;3.60;;;8.10;99.90;;;;;;5103485;28;20036;-85
2022/02/03 14:32:30;;;;;;;3.67;2.30;;;8.10;99.90;;;;;;5097399;28;20108;-86
2022/02/03 14:34:57;;;;;;;3.00;2.17;;;8.10;99.90;;;;;;5111861;28;20044;-84
2022/02/03 14:37:29;;;;;;;2.90;2.03;;;8.10;99.90;;;;;;5082543;28;20039;-84
2022/02/03 14:42:35;;;;;;;1.30;1.20;;;8.10;99.90;;;;;;5097334;28;20048;-86
2022/02/03 14:45:01;;;;;;;2.28;1.95;;;8.10;99.90;;;;;;5076800;28;20041;-84
2022/02/03 14:47:29;;;;;;;2.92;2.10;;;8.10;99.90;;;;;;5101067;28;20044;-83
2022/02/03 14:49:59;;;;;;;2.40;1.98;;;8.10;99.90;;;;;;5078736;28;20050;-85
2022/02/03 14:52:29;;;;;;;3.72;2.17;;;8.10;99.90;;;;;;5086008;28;20063;-82
2022/02/03 15:00:27;;;;;;;2.50;2.03;;;8.00;99.90;;;;;;5085485;28;20040;-82
2022/02/03 15:02:53;;;;;;;2.00;1.58;;;7.90;99.90;;;;;;5064530;28;20457;-84
2022/02/03 15:05:28;;;;;;;4.95;2.58;;;7.80;99.90;;;;;;5096258;28;20035;-80
2022/02/03 15:08:06;;;;;;;3.53;2.35;;;7.80;99.90;;;;;;5085232;28;20480;-82
2022/02/03 15:13:10;;;;;;;2.80;2.33;;;7.70;99.90;;;;;;5092689;28;20055;-84
2022/02/03 15:15:36;;;;;;;4.55;2.65;;;7.60;99.90;;;;;;5111682;28;20035;-85
2022/02/03 15:18:02;;;;;;;4.18;2.42;;;7.70;99.90;;;;;;5102548;28;20040;-84
2022/02/03 15:20:29;;;;;;;3.00;2.15;;;7.60;99.90;;;;;;5105614;28;20122;-85
2022/02/03 15:22:55;;;;;;;5.30;2.45;;;7.50;99.90;;;;;;5099720;28;20059;-85
2022/02/03 15:25:20;;;;;;;3.90;2.80;;;7.50;99.90;;;;;;5095554;28;20048;-83
2022/02/03 15:27:46;;;;;;;5.10;3.38;;;7.50;99.90;;;;;;5112761;28;20035;-87
2022/02/03 15:30:14;;;;;;;6.07;2.70;;;7.40;99.90;;;;;;5101229;28;20039;-85
2022/02/03 15:32:42;;;;;;;6.00;3.08;;;7.90;99.90;;;;;;5111541;28;20048;-83
2022/02/03 15:35:14;;;;;;;3.78;2.88;;;7.40;99.90;;;;;;5103422;28;20048;-83
2022/02/03 15:37:44;;;;;;;5.50;3.42;;;7.30;99.90;;;;;;5106885;28;20052;-84
2022/02/03 15:40:16;;;;;;;5.00;3.25;;;7.30;99.90;;;;;;5095555;28;20393;-83
2022/02/03 15:42:50;;;;;;;4.65;3.00;;;7.30;99.90;;;;;;5098358;28;20036;-83
2022/02/03 15:45:16;;;;;;;4.07;2.95;;;7.20;99.90;;;;;;5102348;28;20056;-81
2022/02/03 15:47:48;;;;;;;4.93;3.35;;;7.20;99.90;;;;;;5082230;28;20515;-81
2022/02/03 16:01:53;;;;;;;4.15;2.85;;;7.20;99.90;;;;;;5100088;28;20043;-83
2022/02/03 16:17:26;;;;;;;5.10;3.75;;;7.20;99.90;;;;;;5064242;28;20124;-80
2022/02/03 16:20:08;;;;;;;;;;;7.20;99.90;;;;;;5096493;28;20051;-82
2022/02/03 16:54:53;;;;;;;12.70;5.50;;;7.00;99.90;;;;;;5091324;28;20075;-80
2022/02/03 16:57:23;;;;;;;6.10;3.97;;;7.00;99.90;;;;;;5106895;28;20032;-82
2022/02/03 16:59:58;;;;;;;9.45;5.13;;;7.00;99.90;;;;;;5109921;28;20370;-80
2022/02/03 17:02:24;;;;;;;6.50;4.93;;;7.00;99.90;;;;;;5091502;28;20114;-82
2022/02/03 17:04:56;;;;;;;8.38;5.25;;;6.90;99.90;;;;;;5100640;28;20040;-81
2022/02/03 17:07:21;;;;;;;6.40;3.35;;;7.10;99.90;;;;;;5089516;28;20378;-79
2022/02/03 17:09:49;;;;;;;8.10;4.55;;;6.90;99.90;;;;;;5102531;28;20058;-80
2022/02/03 17:12:16;;;;;;;9.82;4.50;;;6.90;99.90;;;;;;5094528;28;20044;-77
2022/02/03 17:14:42;;;;;;;3.88;3.42;;;6.90;99.90;;;;;;5100771;28;20193;-80
2022/02/03 17:17:08;;;;;;;6.18;3.92;;;6.90;99.90;;;;;;5096975;28;20048;-81
2022/02/03 17:19:36;;;;;;;5.57;4.38;;;6.90;99.90;;;;;;5088214;28;20051;-81
2022/02/03 17:22:03;;;;;;;11.27;5.07;;;6.90;99.90;;;;;;5093464;28;20412;-82
2022/02/03 17:24:29;;;;;;;12.18;5.20;;;6.90;99.90;;;;;;5101353;28;20669;-80
2022/02/03 18:09:40;;;;;;;8.30;3.08;;;6.90;99.90;;;;;;5075757;28;20047;-78
2022/02/03 18:26:02;;;;;;;10.85;4.35;;;6.90;99.90;;;;;;5068489;28;20052;-78
2022/02/03 18:31:05;;;;;;;17.08;5.32;;;6.90;99.90;;;;;;5095976;28;20079;-79
2022/02/03 18:51:42;;;;;;;10.05;6.38;;;7.00;99.90;;;;;;5087039;28;19974;-79
2022/02/03 18:56:50;;;;;;;10.15;5.22;;;7.00;99.90;;;;;;5091948;28;20043;-80
2022/02/03 19:02:09;;;;;;;9.38;4.97;;;7.00;99.90;;;;;;5089358;28;20047;-79
2022/02/03 19:15:55;;;;;;;10.57;5.60;;;7.00;99.90;;;;;;5096130;28;20047;-79
2022/02/03 20:10:37;;;;;;;15.43;5.50;;;7.10;99.90;;;;;;5102691;28;20684;-81
2022/02/03 20:13:06;;;;;;;12.38;5.80;;;7.10;99.90;;;;;;5099361;28;20057;-82
2022/02/03 20:15:37;;;;;;;7.25;4.25;;;7.10;99.90;;;;;;5074329;28;90069;-83
2022/02/03 20:18:11;;;;;;;9.73;4.78;;;7.10;99.90;;;;;;5097962;28;20054;-84
2022/02/03 20:20:42;;;;;;;8.35;5.20;;;7.10;99.90;;;;;;5112271;28;20478;-81
2022/02/03 20:23:12;;;;;;;13.23;6.32;;;7.10;99.90;;;;;;5085642;28;20838;-83
2022/02/03 20:25:49;;;;;;;15.55;5.68;;;8.00;99.90;;;;;;5065158;28;20069;-83
2022/02/03 20:28:16;;;;;;;9.77;5.88;;;7.10;99.90;;;;;;5074610;28;75550;-84
2022/02/03 20:30:42;;;;;;;10.68;5.20;;;7.10;99.90;;;;;;5065155;28;20463;-82
2022/02/03 20:33:11;;;;;;;13.30;7.25;;;7.10;99.90;;;;;;5093195;28;20093;-87
2022/02/03 20:35:36;;;;;;;12.93;7.47;;;7.10;99.90;;;;;;5093435;28;20044;-79
2022/02/03 20:38:08;;;;;;;8.35;6.13;;;7.10;99.90;;;;;;5079293;28;20047;-80
2022/02/03 20:40:35;;;;;;;8.45;6.03;;;7.10;99.90;;;;;;5079917;28;20036;-85
2022/02/03 20:43:01;;;;;;;10.88;5.22;;;7.00;99.90;;;;;;5103937;28;20036;-82
2022/02/03 20:45:30;;;;;;;10.90;4.10;;;7.00;99.90;;;;;;5075533;28;20127;-83
2022/02/03 20:47:59;;;;;;;13.57;5.13;;;7.00;99.90;;;;;;5095272;28;20048;-81
2022/02/03 20:50:26;;;;;;;10.50;5.07;;;7.00;99.90;;;;;;5067702;28;20035;-85
2022/02/03 20:52:52;;;;;;;7.65;5.13;;;7.00;99.90;;;;;;5096756;28;20469;-83
2022/02/03 20:55:20;;;;;;;7.68;5.78;;;7.00;99.90;;;;;;5079330;28;20043;-81
2022/02/03 20:57:52;;;;;;;8.50;5.75;;;7.00;99.90;;;;;;5081459;28;20050;-81
2022/02/03 21:00:55;;;;;;;9.63;5.28;;;7.00;99.90;;;;;;5083506;28;20035;-83
2022/02/03 21:03:22;;;;;;;10.20;6.25;;;7.00;99.90;;;;;;5084711;28;20043;-82
2022/02/03 21:05:48;;;;;;;5.93;4.47;;;6.90;99.90;;;;;;5077905;28;20039;-78
2022/02/03 21:08:17;;;;;;;11.07;5.47;;;5.80;99.90;;;;;;5058101;28;20055;-80
2022/02/03 21:10:43;;;;;;;14.27;5.18;;;6.00;99.90;;;;;;5085819;28;20047;-80
2022/02/03 21:13:10;;;;;;;14.85;4.88;;;6.90;99.90;;;;;;5104745;28;20039;-80
2022/02/03 21:15:38;;;;;;;14.55;5.82;;;6.90;99.90;;;;;;5086665;28;20075;-80
2022/02/03 21:18:09;;;;;;;9.50;4.20;;;6.90;99.90;;;;;;5095000;28;20495;-81
2022/02/03 21:20:37;;;;;;;7.53;4.53;;;6.90;99.90;;;;;;5072930;27;34118;-84
2022/02/03 21:23:04;;;;;;;11.32;5.57;;;6.90;99.90;;;;;;5104871;27;20051;-79
2022/02/03 21:25:38;;;;;;;9.55;5.32;;;7.00;99.90;;;;;;5110289;27;20054;-81
2022/02/03 21:28:16;;;;;;;9.02;5.30;;;6.90;99.90;;;;;;5109540;27;20072;-82
2022/02/03 21:30:45;;;;;;;8.45;4.65;;;6.90;99.90;;;;;;5113298;27;20040;-81
2022/02/03 21:33:15;;;;;;;13.07;4.68;;;6.90;99.90;;;;;;5120826;27;20122;-82
2022/02/03 21:35:45;;;;;;;6.95;4.80;;;6.90;99.90;;;;;;5120663;27;20046;-83
2022/02/03 21:38:13;;;;;;;9.55;5.03;;;6.90;99.90;;;;;;5108491;27;20043;-82
2022/02/03 21:40:45;;;;;;;9.77;5.80;;;6.90;99.90;;;;;;5125032;27;20046;-82
2022/02/03 21:43:11;;;;;;;12.65;5.28;;;6.90;99.90;;;;;;5089833;27;20102;-83
2022/02/03 21:45:37;;;;;;;16.65;5.47;;;6.90;99.90;;;;;;5112942;28;20078;-82
2022/02/03 21:48:04;;;;;;;10.43;5.53;;;6.90;99.90;;;;;;5144084;27;20035;-85
2022/02/03 21:50:35;;;;;;;7.35;4.82;;;6.80;99.90;;;;;;5117168;27;20054;-81
2022/02/03 21:53:06;;;;;;;10.98;4.68;;;6.80;99.90;;;;;;5100181;27;20043;-84
2022/02/03 21:55:35;;;;;;;14.35;6.10;;;6.90;99.90;;;;;;5105060;27;20180;-83
2022/02/03 21:58:01;;;;;;;7.55;4.70;;;6.90;99.90;;;;;;5131865;27;20728;-83
2022/02/03 22:00:26;;;;;;;11.77;4.82;;;6.80;99.90;;;;;;5125262;27;20051;-84
2022/02/03 22:02:52;;;;;;;9.65;4.97;;;6.80;99.90;;;;;;5125366;27;20050;-83
2022/02/03 22:05:19;;;;;;;10.25;5.43;;;6.70;99.90;;;;;;5111143;27;20207;-83
2022/02/03 22:07:46;;;;;;;11.00;5.00;;;6.80;99.90;;;;;;5108322;27;20043;-82
2022/02/03 22:10:15;;;;;;;13.60;5.70;;;6.80;99.90;;;;;;5109445;28;20147;-85
2022/02/03 22:12:42;;;;;;;9.50;5.30;;;6.90;99.90;;;;;;5111885;28;20206;-81
2022/02/03 22:15:08;;;;;;;9.38;6.43;;;6.90;99.90;;;;;;5114110;27;20055;-84
2022/02/03 22:17:34;;;;;;;18.48;6.40;;;6.80;99.90;;;;;;5121061;27;20044;-79
2022/02/03 22:20:05;;;;;;;17.88;5.72;;;6.90;99.90;;;;;;5122617;27;20039;-78
2022/02/03 22:49:46;;;;;;;13.20;6.00;;;6.70;99.90;;;;;;5109517;28;20078;-81
2022/02/03 22:52:13;;;;;;;12.98;6.85;;;6.80;99.90;;;;;;5111225;27;20707;-83
2022/02/03 22:54:39;;;;;;;16.15;5.93;;;6.80;99.90;;;;;;5110002;27;20365;-83
2022/02/03 22:57:08;;;;;;;;;;;6.70;99.90;;;;;;5123016;27;20077;-82
2022/02/03 23:00:25;;;;;;;17.63;6.43;;;6.80;99.90;;;;;;5112676;28;19923;-84
2022/02/03 23:02:39;;;;;;;9.00;5.45;;;6.70;99.90;;;;;;5110275;27;20050;-83
2022/02/03 23:05:06;;;;;;;8.63;4.78;;;6.60;99.90;;;;;;5104441;27;120599;-84
2022/02/03 23:07:39;;;;;;;10.32;4.57;;;6.60;99.90;;;;;;5080625;28;20044;-85
2022/02/03 23:10:37;;;;;;;11.13;5.47;;;6.50;99.90;;;;;;5114764;27;20043;-84
2022/02/03 23:13:23;;;;;;;5.65;4.70;;;6.50;99.90;;;;;;5099281;28;20071;-85
2022/02/03 23:16:22;;;;;;;12.10;5.93;;;6.50;99.90;;;;;;5125906;27;20036;-84
2022/02/03 23:24:09;;;;;;;13.50;5.28;;;6.40;99.90;;;;;;5098671;28;19920;-85
2022/02/03 23:26:35;;;;;;;14.25;5.75;;;6.40;99.90;;;;;;5102854;28;20036;-84
2022/02/03 23:29:07;;;;;;;10.52;5.07;;;6.40;99.90;;;;;;5109657;28;20058;-85
2022/02/03 23:31:49;;;;;;;11.63;6.63;;;6.40;99.90;;;;;;5110412;28;20043;-84
2022/02/03 23:34:15;;;;;;;11.18;6.50;;;6.30;99.90;;;;;;5113721;28;20397;-82
2022/02/03 23:36:40;;;;;;;13.07;6.50;;;6.30;99.90;;;;;;5095834;28;20047;-84
2022/02/03 23:39:18;;;;;;;9.82;5.18;;;6.30;99.90;;;;;;5113066;28;20047;-84
